Terminal Aerodrome Forecast
Issued by NWS

Home | Current Version | Previous Version | Text Only | Print | Product List | Glossary On
Versions: 1 2 3 4 5 6 7 8 9 10 11 12 13 14 15 16 17 18 19
000
FTUS41 KBTV 010800 AAA
TAFMSS
TAF AMD
KMSS 010800Z 0108/0206 22005KT 6SM BR BKN040
      TEMPO 0108/0112 1SM BR BKN004
     FM011200 22006KT P6SM SCT035=

USA.gov is the U.S. government's official web portal to all federal, state and local government web resources and services.